Hovedside
METAR-TAF:

METAR-TAF

Lufthavner :

Helsingfors-Vanda lufthavn

Helsingfors, Finland

breddegrad: 60-19N, lengdegrad: 024-58E, høyde over havet: 51 m

Gjeldene værobservasjon

Denne rapporten ble laget for 33 minutter siden, klokken 09:20 UTC
Vind 8 kt fra Nord-nordøst
Temperatur -2°C
Luftfuktighet 86%
Trykk 1033 hPa
Sikt 10 km eller mer
Overskyet i en høyde av 1400 ft

METAR: EFHK 130920Z 02008KT 9999 OVC014 M02/M04 Q1033 NOSIG

Tid: 11:53 (09:53 UTC)

Varsel

Denne rapporten ble laget for 1 time og 27 minutter siden, klokken 08:26 UTC
Varsel gyldig fra 13. klokken 09 UTC til 14. klokken 09 UTC
Vind 8 kt fra Nord-nordøst
Sikt 10 km eller mer
Brutte skyer i en høyde av 1800 ft
Midlertidig
fra 13. klokken 09 UTC til 14. klokken 00 UTC
Brutte skyer i en høyde av 1200 ft

TAF: EFHK 130826Z 1309/1409 03008KT 9999 BKN018 TEMPO 1309/1400 BKN012

Værobservasjoner og værvarsel for over 4000 flyplasser (METAR- og TAF-rapporter).

Tilgjengelige stasjoner er representert av de røde og gule prikkene på kartet.

Hold musepekeren over prikken for å se navnet på stasjonen.

Klikk så for å se værobservasjoner og -varsler.

For å forandre kartet kan du klikke på den grønne knappen med svart kryss for å zoome inn, på den grønne knappen med strek for å zoome ut, eller på de grønne pilene for å se tilstøtende kart.


METAR-TAF: